sensor_id;sensor_type;location;lat;lon;timestamp;P1;durP1;ratioP1;P2;durP2;ratioP2
40815;SDS011;26535;48.788;9.214;2023-08-24T00:02:05;8.35;;;5.00;;
40815;SDS011;26535;48.788;9.214;2023-08-24T00:04:33;6.05;;;5.10;;
40815;SDS011;26535;48.788;9.214;2023-08-24T00:07:02;7.25;;;5.07;;
40815;SDS011;26535;48.788;9.214;2023-08-24T00:09:28;7.93;;;5.00;;
40815;SDS011;26535;48.788;9.214;2023-08-24T00:11:54;8.90;;;4.88;;
40815;SDS011;26535;48.788;9.214;2023-08-24T00:14:20;8.27;;;5.43;;
40815;SDS011;26535;48.788;9.214;2023-08-24T00:16:46;10.00;;;5.15;;
40815;SDS011;26535;48.788;9.214;2023-08-24T00:19:12;7.28;;;5.15;;
40815;SDS011;26535;48.788;9.214;2023-08-24T00:21:37;7.50;;;5.05;;
40815;SDS011;26535;48.788;9.214;2023-08-24T00:24:03;7.82;;;4.72;;
40815;SDS011;26535;48.788;9.214;2023-08-24T00:26:29;7.28;;;4.95;;
40815;SDS011;26535;48.788;9.214;2023-08-24T00:28:55;9.27;;;5.35;;
40815;SDS011;26535;48.788;9.214;2023-08-24T06:19:33;8.57;;;5.05;;
40815;SDS011;26535;48.788;9.214;2023-08-24T06:21:59;7.75;;;4.93;;
40815;SDS011;26535;48.788;9.214;2023-08-24T06:24:24;8.48;;;5.35;;
40815;SDS011;26535;48.788;9.214;2023-08-24T06:26:50;9.73;;;5.88;;
40815;SDS011;26535;48.788;9.214;2023-08-24T06:29:16;8.23;;;4.90;;
40815;SDS011;26535;48.788;9.214;2023-08-24T06:31:42;8.30;;;5.63;;
40815;SDS011;26535;48.788;9.214;2023-08-24T06:34:08;9.77;;;5.93;;
40815;SDS011;26535;48.788;9.214;2023-08-24T06:36:33;9.45;;;5.72;;
40815;SDS011;26535;48.788;9.214;2023-08-24T06:38:59;9.68;;;5.45;;
40815;SDS011;26535;48.788;9.214;2023-08-24T06:41:25;8.23;;;5.18;;
40815;SDS011;26535;48.788;9.214;2023-08-24T06:43:51;9.07;;;5.70;;
40815;SDS011;26535;48.788;9.214;2023-08-24T06:46:19;9.65;;;5.95;;
40815;SDS011;26535;48.788;9.214;2023-08-24T06:48:44;7.43;;;5.10;;
40815;SDS011;26535;48.788;9.214;2023-08-24T06:51:10;9.20;;;5.65;;
40815;SDS011;26535;48.788;9.214;2023-08-24T06:53:36;10.85;;;5.53;;
40815;SDS011;26535;48.788;9.214;2023-08-24T06:56:02;10.15;;;5.65;;
40815;SDS011;26535;48.788;9.214;2023-08-24T06:58:29;8.23;;;5.60;;
40815;SDS011;26535;48.788;9.214;2023-08-24T07:00:54;10.23;;;6.18;;
40815;SDS011;26535;48.788;9.214;2023-08-24T07:03:21;11.70;;;5.60;;
40815;SDS011;26535;48.788;9.214;2023-08-24T07:05:47;12.45;;;5.68;;
40815;SDS011;26535;48.788;9.214;2023-08-24T07:08:13;9.50;;;4.72;;
40815;SDS011;26535;48.788;9.214;2023-08-24T07:10:39;11.05;;;4.65;;
40815;SDS011;26535;48.788;9.214;2023-08-24T07:13:06;11.23;;;5.45;;
40815;SDS011;26535;48.788;9.214;2023-08-24T07:15:32;8.20;;;5.40;;
40815;SDS011;26535;48.788;9.214;2023-08-24T07:18:03;12.45;;;5.63;;
40815;SDS011;26535;48.788;9.214;2023-08-24T07:20:32;11.82;;;5.65;;
40815;SDS011;26535;48.788;9.214;2023-08-24T07:22:58;9.30;;;5.67;;
40815;SDS011;26535;48.788;9.214;2023-08-24T07:25:24;13.15;;;6.18;;
40815;SDS011;26535;48.788;9.214;2023-08-24T07:27:50;10.25;;;5.50;;
40815;SDS011;26535;48.788;9.214;2023-08-24T07:30:16;9.38;;;5.68;;
40815;SDS011;26535;48.788;9.214;2023-08-24T07:32:41;13.02;;;5.25;;
40815;SDS011;26535;48.788;9.214;2023-08-24T07:35:07;11.05;;;6.05;;
40815;SDS011;26535;48.788;9.214;2023-08-24T07:37:33;9.02;;;5.05;;
40815;SDS011;26535;48.788;9.214;2023-08-24T07:39:59;9.52;;;6.13;;
40815;SDS011;26535;48.788;9.214;2023-08-24T07:42:25;12.20;;;5.65;;
40815;SDS011;26535;48.788;9.214;2023-08-24T07:44:50;8.73;;;5.05;;
40815;SDS011;26535;48.788;9.214;2023-08-24T07:47:16;9.73;;;5.20;;
40815;SDS011;26535;48.788;9.214;2023-08-24T07:49:42;7.25;;;4.30;;
40815;SDS011;26535;48.788;9.214;2023-08-24T07:52:11;7.53;;;4.75;;
40815;SDS011;26535;48.788;9.214;2023-08-24T07:54:38;6.88;;;4.57;;
40815;SDS011;26535;48.788;9.214;2023-08-24T07:57:04;7.70;;;4.50;;
40815;SDS011;26535;48.788;9.214;2023-08-24T07:59:31;7.18;;;4.47;;
40815;SDS011;26535;48.788;9.214;2023-08-24T08:01:56;8.07;;;4.38;;
40815;SDS011;26535;48.788;9.214;2023-08-24T08:04:22;9.32;;;4.32;;
40815;SDS011;26535;48.788;9.214;2023-08-24T08:06:48;8.98;;;5.05;;
40815;SDS011;26535;48.788;9.214;2023-08-24T08:09:14;6.22;;;4.32;;
40815;SDS011;26535;48.788;9.214;2023-08-24T08:11:39;9.95;;;4.00;;
40815;SDS011;26535;48.788;9.214;2023-08-24T08:14:05;7.00;;;3.65;;
40815;SDS011;26535;48.788;9.214;2023-08-24T08:16:30;10.38;;;4.25;;
40815;SDS011;26535;48.788;9.214;2023-08-24T08:18:56;7.93;;;3.58;;
40815;SDS011;26535;48.788;9.214;2023-08-24T08:21:22;5.82;;;3.75;;
40815;SDS011;26535;48.788;9.214;2023-08-24T08:23:48;8.15;;;3.72;;
40815;SDS011;26535;48.788;9.214;2023-08-24T08:26:14;8.73;;;4.00;;
40815;SDS011;26535;48.788;9.214;2023-08-24T08:28:41;8.90;;;3.72;;
40815;SDS011;26535;48.788;9.214;2023-08-24T08:31:07;8.63;;;3.88;;
40815;SDS011;26535;48.788;9.214;2023-08-24T08:33:33;7.78;;;3.97;;
40815;SDS011;26535;48.788;9.214;2023-08-24T08:35:58;8.23;;;3.60;;
40815;SDS011;26535;48.788;9.214;2023-08-24T08:38:24;6.70;;;3.60;;
40815;SDS011;26535;48.788;9.214;2023-08-24T08:40:53;6.65;;;3.35;;
40815;SDS011;26535;48.788;9.214;2023-08-24T08:43:23;7.45;;;3.88;;
40815;SDS011;26535;48.788;9.214;2023-08-24T08:45:50;6.38;;;3.83;;
40815;SDS011;26535;48.788;9.214;2023-08-24T08:48:18;7.22;;;3.75;;
40815;SDS011;26535;48.788;9.214;2023-08-24T08:50:46;6.13;;;3.10;;
40815;SDS011;26535;48.788;9.214;2023-08-24T08:53:14;5.82;;;3.35;;
40815;SDS011;26535;48.788;9.214;2023-08-24T08:55:40;9.80;;;4.13;;
40815;SDS011;26535;48.788;9.214;2023-08-24T08:58:07;7.88;;;3.63;;
40815;SDS011;26535;48.788;9.214;2023-08-24T09:00:33;15.32;;;4.13;;
40815;SDS011;26535;48.788;9.214;2023-08-24T09:03:00;12.15;;;4.35;;
40815;SDS011;26535;48.788;9.214;2023-08-24T09:05:27;7.68;;;4.22;;
40815;SDS011;26535;48.788;9.214;2023-08-24T09:07:54;9.27;;;3.33;;
40815;SDS011;26535;48.788;9.214;2023-08-24T09:10:21;7.07;;;4.00;;
40815;SDS011;26535;48.788;9.214;2023-08-24T09:12:48;7.13;;;3.83;;
40815;SDS011;26535;48.788;9.214;2023-08-24T09:15:14;10.18;;;3.67;;
40815;SDS011;26535;48.788;9.214;2023-08-24T09:17:43;7.53;;;3.70;;
40815;SDS011;26535;48.788;9.214;2023-08-24T09:20:09;9.38;;;4.15;;
40815;SDS011;26535;48.788;9.214;2023-08-24T09:22:36;8.50;;;4.15;;
40815;SDS011;26535;48.788;9.214;2023-08-24T09:25:03;8.45;;;4.22;;
40815;SDS011;26535;48.788;9.214;2023-08-24T09:27:31;8.60;;;4.00;;
40815;SDS011;26535;48.788;9.214;2023-08-24T09:29:57;6.93;;;3.72;;
40815;SDS011;26535;48.788;9.214;2023-08-24T09:32:24;20.67;;;4.28;;
40815;SDS011;26535;48.788;9.214;2023-08-24T09:34:52;7.18;;;3.40;;
40815;SDS011;26535;48.788;9.214;2023-08-24T09:37:19;6.43;;;3.90;;
40815;SDS011;26535;48.788;9.214;2023-08-24T09:39:45;5.88;;;3.80;;
40815;SDS011;26535;48.788;9.214;2023-08-24T09:42:11;9.73;;;3.65;;
40815;SDS011;26535;48.788;9.214;2023-08-24T09:44:37;7.55;;;3.80;;
40815;SDS011;26535;48.788;9.214;2023-08-24T09:47:08;7.78;;;4.25;;
40815;SDS011;26535;48.788;9.214;2023-08-24T09:49:37;7.93;;;3.60;;
40815;SDS011;26535;48.788;9.214;2023-08-24T09:52:06;8.65;;;4.05;;
40815;SDS011;26535;48.788;9.214;2023-08-24T09:54:33;6.57;;;3.85;;
40815;SDS011;26535;48.788;9.214;2023-08-24T09:57:02;7.57;;;3.47;;
40815;SDS011;26535;48.788;9.214;2023-08-24T09:59:29;5.65;;;3.90;;
40815;SDS011;26535;48.788;9.214;2023-08-24T10:01:56;6.07;;;3.58;;
40815;SDS011;26535;48.788;9.214;2023-08-24T10:04:28;7.80;;;3.80;;
40815;SDS011;26535;48.788;9.214;2023-08-24T10:06:59;7.82;;;3.50;;
40815;SDS011;26535;48.788;9.214;2023-08-24T10:09:53;6.70;;;3.58;;
40815;SDS011;26535;48.788;9.214;2023-08-24T10:12:28;9.23;;;3.55;;
40815;SDS011;26535;48.788;9.214;2023-08-24T10:14:59;7.38;;;3.20;;
40815;SDS011;26535;48.788;9.214;2023-08-24T10:17:31;7.88;;;3.63;;
40815;SDS011;26535;48.788;9.214;2023-08-24T10:19:58;6.07;;;3.88;;
40815;SDS011;26535;48.788;9.214;2023-08-24T10:22:34;6.22;;;3.50;;
40815;SDS011;26535;48.788;9.214;2023-08-24T10:25:02;6.47;;;4.00;;
40815;SDS011;26535;48.788;9.214;2023-08-24T10:27:28;6.57;;;3.88;;
40815;SDS011;26535;48.788;9.214;2023-08-24T10:29:55;7.32;;;3.88;;
40815;SDS011;26535;48.788;9.214;2023-08-24T10:32:21;6.68;;;3.67;;
40815;SDS011;26535;48.788;9.214;2023-08-24T10:34:51;6.53;;;3.75;;
40815;SDS011;26535;48.788;9.214;2023-08-24T10:37:22;11.75;;;4.32;;
40815;SDS011;26535;48.788;9.214;2023-08-24T10:39:50;6.97;;;3.78;;
40815;SDS011;26535;48.788;9.214;2023-08-24T10:42:16;5.35;;;3.47;;
40815;SDS011;26535;48.788;9.214;2023-08-24T10:44:45;7.32;;;3.47;;
40815;SDS011;26535;48.788;9.214;2023-08-24T10:47:12;8.85;;;4.05;;
40815;SDS011;26535;48.788;9.214;2023-08-24T10:49:41;5.78;;;3.75;;
40815;SDS011;26535;48.788;9.214;2023-08-24T10:52:17;6.40;;;3.90;;
40815;SDS011;26535;48.788;9.214;2023-08-24T10:54:51;8.57;;;3.70;;
40815;SDS011;26535;48.788;9.214;2023-08-24T10:57:21;6.25;;;3.70;;
40815;SDS011;26535;48.788;9.214;2023-08-24T11:00:07;6.90;;;3.92;;
40815;SDS011;26535;48.788;9.214;2023-08-24T11:02:44;7.50;;;4.00;;
40815;SDS011;26535;48.788;9.214;2023-08-24T11:05:21;9.10;;;4.13;;
40815;SDS011;26535;48.788;9.214;2023-08-24T11:07:54;9.48;;;4.80;;
40815;SDS011;26535;48.788;9.214;2023-08-24T11:10:21;7.28;;;4.18;;
40815;SDS011;26535;48.788;9.214;2023-08-24T11:13:04;6.90;;;4.05;;
40815;SDS011;26535;48.788;9.214;2023-08-24T11:20:52;6.38;;;3.80;;
40815;SDS011;26535;48.788;9.214;2023-08-24T11:23:20;7.07;;;4.10;;
40815;SDS011;26535;48.788;9.214;2023-08-24T11:25:47;6.87;;;4.13;;
40815;SDS011;26535;48.788;9.214;2023-08-24T11:28:18;5.10;;;3.50;;
40815;SDS011;26535;48.788;9.214;2023-08-24T11:30:45;4.80;;;3.33;;
40815;SDS011;26535;48.788;9.214;2023-08-24T11:35:57;9.50;;;4.35;;
40815;SDS011;26535;48.788;9.214;2023-08-24T11:38:23;9.93;;;3.72;;
40815;SDS011;26535;48.788;9.214;2023-08-24T11:40:49;7.50;;;3.47;;
40815;SDS011;26535;48.788;9.214;2023-08-24T11:43:23;7.30;;;3.47;;
40815;SDS011;26535;48.788;9.214;2023-08-24T11:45:51;8.65;;;3.03;;
40815;SDS011;26535;48.788;9.214;2023-08-24T11:50:48;4.60;;;2.92;;
40815;SDS011;26535;48.788;9.214;2023-08-24T11:53:15;5.97;;;3.50;;
40815;SDS011;26535;48.788;9.214;2023-08-24T11:55:42;6.65;;;3.40;;
40815;SDS011;26535;48.788;9.214;2023-08-24T11:58:15;7.18;;;3.40;;
40815;SDS011;26535;48.788;9.214;2023-08-24T12:00:41;7.65;;;3.88;;
40815;SDS011;26535;48.788;9.214;2023-08-24T12:03:08;5.82;;;3.38;;
40815;SDS011;26535;48.788;9.214;2023-08-24T12:05:35;7.63;;;3.80;;
40815;SDS011;26535;48.788;9.214;2023-08-24T12:08:01;8.00;;;3.83;;
40815;SDS011;26535;48.788;9.214;2023-08-24T12:10:27;6.20;;;3.33;;
40815;SDS011;26535;48.788;9.214;2023-08-24T12:13:05;6.13;;;3.47;;
40815;SDS011;26535;48.788;9.214;2023-08-24T12:15:33;5.15;;;3.22;;
40815;SDS011;26535;48.788;9.214;2023-08-24T12:18:06;6.97;;;3.58;;
40815;SDS011;26535;48.788;9.214;2023-08-24T12:20:33;5.82;;;3.20;;
40815;SDS011;26535;48.788;9.214;2023-08-24T12:22:59;5.53;;;3.58;;
40815;SDS011;26535;48.788;9.214;2023-08-24T12:25:25;4.93;;;3.20;;
40815;SDS011;26535;48.788;9.214;2023-08-24T12:27:51;5.80;;;3.05;;
40815;SDS011;26535;48.788;9.214;2023-08-24T12:30:18;7.55;;;3.65;;
40815;SDS011;26535;48.788;9.214;2023-08-24T12:32:47;7.07;;;3.85;;
40815;SDS011;26535;48.788;9.214;2023-08-24T12:35:15;4.68;;;3.15;;
40815;SDS011;26535;48.788;9.214;2023-08-24T12:37:41;6.30;;;2.85;;
40815;SDS011;26535;48.788;9.214;2023-08-24T12:40:10;7.38;;;3.33;;
40815;SDS011;26535;48.788;9.214;2023-08-24T12:42:36;6.45;;;3.20;;
40815;SDS011;26535;48.788;9.214;2023-08-24T12:45:02;6.20;;;3.47;;
40815;SDS011;26535;48.788;9.214;2023-08-24T12:47:30;4.75;;;2.75;;
40815;SDS011;26535;48.788;9.214;2023-08-24T12:49:55;5.78;;;3.63;;
40815;SDS011;26535;48.788;9.214;2023-08-24T12:52:22;6.53;;;3.50;;
40815;SDS011;26535;48.788;9.214;2023-08-24T12:54:49;5.82;;;3.50;;
40815;SDS011;26535;48.788;9.214;2023-08-24T12:57:15;8.35;;;3.88;;
40815;SDS011;26535;48.788;9.214;2023-08-24T12:59:41;9.60;;;3.53;;
40815;SDS011;26535;48.788;9.214;2023-08-24T13:02:06;9.07;;;3.43;;
40815;SDS011;26535;48.788;9.214;2023-08-24T13:04:32;7.20;;;2.83;;
40815;SDS011;26535;48.788;9.214;2023-08-24T13:06:58;7.13;;;3.20;;
40815;SDS011;26535;48.788;9.214;2023-08-24T13:09:24;5.07;;;3.13;;
40815;SDS011;26535;48.788;9.214;2023-08-24T13:11:50;5.82;;;3.28;;
40815;SDS011;26535;48.788;9.214;2023-08-24T13:14:16;11.67;;;3.90;;
40815;SDS011;26535;48.788;9.214;2023-08-24T13:16:42;8.70;;;3.75;;
40815;SDS011;26535;48.788;9.214;2023-08-24T13:19:07;7.70;;;3.45;;
40815;SDS011;26535;48.788;9.214;2023-08-24T13:21:33;7.90;;;3.55;;
40815;SDS011;26535;48.788;9.214;2023-08-24T13:23:59;11.90;;;3.25;;
40815;SDS011;26535;48.788;9.214;2023-08-24T13:26:24;6.68;;;3.40;;
40815;SDS011;26535;48.788;9.214;2023-08-24T13:28:50;6.70;;;3.00;;
40815;SDS011;26535;48.788;9.214;2023-08-24T13:31:16;9.40;;;4.05;;
40815;SDS011;26535;48.788;9.214;2023-08-24T13:33:44;10.27;;;4.03;;
40815;SDS011;26535;48.788;9.214;2023-08-24T13:36:10;5.97;;;3.28;;
40815;SDS011;26535;48.788;9.214;2023-08-24T13:38:36;7.43;;;3.17;;
40815;SDS011;26535;48.788;9.214;2023-08-24T13:41:02;6.63;;;3.00;;
40815;SDS011;26535;48.788;9.214;2023-08-24T13:43:28;8.30;;;3.20;;
40815;SDS011;26535;48.788;9.214;2023-08-24T13:45:54;8.43;;;3.10;;
40815;SDS011;26535;48.788;9.214;2023-08-24T13:48:20;6.80;;;3.30;;
40815;SDS011;26535;48.788;9.214;2023-08-24T13:50:50;9.83;;;3.33;;
40815;SDS011;26535;48.788;9.214;2023-08-24T13:53:19;6.88;;;3.33;;
40815;SDS011;26535;48.788;9.214;2023-08-24T13:55:45;6.05;;;2.90;;
40815;SDS011;26535;48.788;9.214;2023-08-24T13:58:11;7.40;;;3.20;;
40815;SDS011;26535;48.788;9.214;2023-08-24T14:00:36;7.60;;;3.47;;
40815;SDS011;26535;48.788;9.214;2023-08-24T14:03:02;8.37;;;2.97;;
40815;SDS011;26535;48.788;9.214;2023-08-24T14:05:29;8.68;;;2.90;;
40815;SDS011;26535;48.788;9.214;2023-08-24T14:07:55;5.40;;;3.20;;
40815;SDS011;26535;48.788;9.214;2023-08-24T14:10:21;4.50;;;2.63;;
40815;SDS011;26535;48.788;9.214;2023-08-24T14:12:46;7.22;;;3.35;;
40815;SDS011;26535;48.788;9.214;2023-08-24T14:15:12;5.50;;;3.00;;
40815;SDS011;26535;48.788;9.214;2023-08-24T14:20:04;6.50;;;3.10;;
40815;SDS011;26535;48.788;9.214;2023-08-24T14:22:30;8.68;;;3.00;;
40815;SDS011;26535;48.788;9.214;2023-08-24T14:24:56;7.10;;;2.90;;
40815;SDS011;26535;48.788;9.214;2023-08-24T14:27:22;9.27;;;3.15;;
40815;SDS011;26535;48.788;9.214;2023-08-24T14:29:47;7.97;;;3.10;;
40815;SDS011;26535;48.788;9.214;2023-08-24T14:32:13;45.72;;;12.35;;
40815;SDS011;26535;48.788;9.214;2023-08-24T14:34:39;47.67;;;11.13;;
40815;SDS011;26535;48.788;9.214;2023-08-24T14:37:05;16.60;;;4.68;;
40815;SDS011;26535;48.788;9.214;2023-08-24T14:39:30;9.95;;;3.58;;
40815;SDS011;26535;48.788;9.214;2023-08-24T14:41:56;10.85;;;3.50;;
40815;SDS011;26535;48.788;9.214;2023-08-24T14:44:22;9.40;;;3.63;;
40815;SDS011;26535;48.788;9.214;2023-08-24T14:46:47;11.18;;;3.42;;
40815;SDS011;26535;48.788;9.214;2023-08-24T14:49:13;8.68;;;3.25;;
40815;SDS011;26535;48.788;9.214;2023-08-24T14:51:43;11.30;;;3.30;;
40815;SDS011;26535;48.788;9.214;2023-08-24T14:54:10;9.07;;;3.70;;
40815;SDS011;26535;48.788;9.214;2023-08-24T14:56:39;10.73;;;3.60;;
40815;SDS011;26535;48.788;9.214;2023-08-24T14:59:05;11.98;;;5.05;;
40815;SDS011;26535;48.788;9.214;2023-08-24T15:01:30;20.83;;;4.43;;
40815;SDS011;26535;48.788;9.214;2023-08-24T15:03:56;16.58;;;4.50;;
40815;SDS011;26535;48.788;9.214;2023-08-24T15:06:22;11.20;;;4.05;;
40815;SDS011;26535;48.788;9.214;2023-08-24T15:08:48;15.35;;;4.65;;
40815;SDS011;26535;48.788;9.214;2023-08-24T15:11:14;14.63;;;3.90;;
40815;SDS011;26535;48.788;9.214;2023-08-24T15:13:41;6.00;;;2.33;;
40815;SDS011;26535;48.788;9.214;2023-08-24T15:16:08;9.13;;;3.00;;
40815;SDS011;26535;48.788;9.214;2023-08-24T15:18:35;9.02;;;2.75;;
40815;SDS011;26535;48.788;9.214;2023-08-24T15:21:01;12.77;;;3.50;;
40815;SDS011;26535;48.788;9.214;2023-08-24T15:23:28;5.40;;;2.40;;
40815;SDS011;26535;48.788;9.214;2023-08-24T15:25:56;8.73;;;2.53;;
40815;SDS011;26535;48.788;9.214;2023-08-24T15:28:23;15.05;;;3.65;;
40815;SDS011;26535;48.788;9.214;2023-08-24T15:30:49;10.98;;;4.00;;
40815;SDS011;26535;48.788;9.214;2023-08-24T15:33:16;10.32;;;3.35;;
40815;SDS011;26535;48.788;9.214;2023-08-24T15:35:43;8.27;;;3.85;;
40815;SDS011;26535;48.788;9.214;2023-08-24T15:38:09;7.88;;;3.50;;
40815;SDS011;26535;48.788;9.214;2023-08-24T15:40:36;5.88;;;2.92;;
40815;SDS011;26535;48.788;9.214;2023-08-24T15:43:02;6.85;;;3.38;;
40815;SDS011;26535;48.788;9.214;2023-08-24T15:45:30;5.90;;;2.80;;
40815;SDS011;26535;48.788;9.214;2023-08-24T15:47:56;5.80;;;3.05;;
40815;SDS011;26535;48.788;9.214;2023-08-24T15:50:23;5.65;;;2.78;;
40815;SDS011;26535;48.788;9.214;2023-08-24T15:52:49;5.90;;;2.83;;
40815;SDS011;26535;48.788;9.214;2023-08-24T15:55:17;5.03;;;2.20;;
40815;SDS011;26535;48.788;9.214;2023-08-24T15:57:43;6.03;;;2.30;;
40815;SDS011;26535;48.788;9.214;2023-08-24T16:00:08;6.35;;;2.50;;
40815;SDS011;26535;48.788;9.214;2023-08-24T16:02:37;6.40;;;2.55;;
40815;SDS011;26535;48.788;9.214;2023-08-24T16:05:04;7.07;;;2.17;;
40815;SDS011;26535;48.788;9.214;2023-08-24T16:07:30;4.25;;;2.30;;
40815;SDS011;26535;48.788;9.214;2023-08-24T16:09:56;5.03;;;2.63;;
40815;SDS011;26535;48.788;9.214;2023-08-24T16:12:22;6.50;;;3.05;;
40815;SDS011;26535;48.788;9.214;2023-08-24T16:14:48;7.53;;;2.72;;
40815;SDS011;26535;48.788;9.214;2023-08-24T16:17:13;5.97;;;2.55;;
40815;SDS011;26535;48.788;9.214;2023-08-24T16:19:39;8.80;;;2.75;;
40815;SDS011;26535;48.788;9.214;2023-08-24T16:22:05;5.07;;;2.35;;
40815;SDS011;26535;48.788;9.214;2023-08-24T16:24:32;5.18;;;2.50;;
40815;SDS011;26535;48.788;9.214;2023-08-24T16:26:58;29.27;;;4.60;;
40815;SDS011;26535;48.788;9.214;2023-08-24T16:29:24;7.63;;;2.40;;
40815;SDS011;26535;48.788;9.214;2023-08-24T16:31:52;7.38;;;2.60;;
40815;SDS011;26535;48.788;9.214;2023-08-24T16:34:18;7.38;;;3.38;;
40815;SDS011;26535;48.788;9.214;2023-08-24T16:36:44;5.35;;;2.72;;
40815;SDS011;26535;48.788;9.214;2023-08-24T16:39:10;5.63;;;2.47;;
40815;SDS011;26535;48.788;9.214;2023-08-24T16:41:36;4.00;;;1.95;;
40815;SDS011;26535;48.788;9.214;2023-08-24T16:44:03;5.25;;;1.70;;
40815;SDS011;26535;48.788;9.214;2023-08-24T16:46:29;17.42;;;3.22;;
40815;SDS011;26535;48.788;9.214;2023-08-24T16:48:55;5.75;;;2.00;;
40815;SDS011;26535;48.788;9.214;2023-08-24T16:51:20;4.20;;;1.55;;
40815;SDS011;26535;48.788;9.214;2023-08-24T16:53:46;2.58;;;1.45;;
40815;SDS011;26535;48.788;9.214;2023-08-24T16:56:12;5.63;;;1.63;;
40815;SDS011;26535;48.788;9.214;2023-08-24T16:58:46;6.13;;;1.85;;
40815;SDS011;26535;48.788;9.214;2023-08-24T17:01:12;4.10;;;1.50;;
40815;SDS011;26535;48.788;9.214;2023-08-24T17:03:38;2.42;;;1.48;;
40815;SDS011;26535;48.788;9.214;2023-08-24T17:06:04;3.55;;;1.25;;
40815;SDS011;26535;48.788;9.214;2023-08-24T17:08:30;4.22;;;1.75;;
40815;SDS011;26535;48.788;9.214;2023-08-24T17:10:55;3.45;;;1.77;;
40815;SDS011;26535;48.788;9.214;2023-08-24T17:13:21;7.07;;;2.17;;
40815;SDS011;26535;48.788;9.214;2023-08-24T17:15:50;4.05;;;2.03;;
40815;SDS011;26535;48.788;9.214;2023-08-24T17:18:16;4.55;;;2.10;;
40815;SDS011;26535;48.788;9.214;2023-08-24T17:20:42;3.42;;;2.03;;
40815;SDS011;26535;48.788;9.214;2023-08-24T17:23:07;3.85;;;1.50;;
40815;SDS011;26535;48.788;9.214;2023-08-24T17:25:33;6.57;;;2.63;;
40815;SDS011;26535;48.788;9.214;2023-08-24T17:27:59;4.47;;;2.00;;
40815;SDS011;26535;48.788;9.214;2023-08-24T17:30:25;4.95;;;2.20;;
40815;SDS011;26535;48.788;9.214;2023-08-24T17:32:50;6.45;;;2.40;;
40815;SDS011;26535;48.788;9.214;2023-08-24T17:35:16;3.50;;;1.83;;
40815;SDS011;26535;48.788;9.214;2023-08-24T17:37:42;3.47;;;1.73;;
40815;SDS011;26535;48.788;9.214;2023-08-24T17:40:07;4.88;;;2.20;;
40815;SDS011;26535;48.788;9.214;2023-08-24T17:42:36;5.03;;;1.40;;
40815;SDS011;26535;48.788;9.214;2023-08-24T17:45:08;5.38;;;1.77;;
40815;SDS011;26535;48.788;9.214;2023-08-24T17:47:34;4.75;;;1.50;;
40815;SDS011;26535;48.788;9.214;2023-08-24T17:50:00;3.97;;;1.48;;
40815;SDS011;26535;48.788;9.214;2023-08-24T17:52:27;3.88;;;1.77;;
40815;SDS011;26535;48.788;9.214;2023-08-24T17:54:52;5.40;;;2.28;;
40815;SDS011;26535;48.788;9.214;2023-08-24T17:57:18;6.05;;;1.75;;
40815;SDS011;26535;48.788;9.214;2023-08-24T17:59:44;5.88;;;2.20;;
40815;SDS011;26535;48.788;9.214;2023-08-24T18:02:10;3.65;;;1.60;;
40815;SDS011;26535;48.788;9.214;2023-08-24T18:04:35;4.60;;;2.22;;
40815;SDS011;26535;48.788;9.214;2023-08-24T18:07:01;5.05;;;2.15;;
40815;SDS011;26535;48.788;9.214;2023-08-24T18:09:27;4.32;;;2.30;;
40815;SDS011;26535;48.788;9.214;2023-08-24T18:11:52;6.78;;;2.30;;
40815;SDS011;26535;48.788;9.214;2023-08-24T18:14:18;3.83;;;2.50;;
40815;SDS011;26535;48.788;9.214;2023-08-24T18:16:44;3.72;;;2.20;;
40815;SDS011;26535;48.788;9.214;2023-08-24T18:19:09;5.63;;;2.50;;
40815;SDS011;26535;48.788;9.214;2023-08-24T18:21:35;5.53;;;2.60;;
40815;SDS011;26535;48.788;9.214;2023-08-24T18:24:02;6.15;;;2.50;;
40815;SDS011;26535;48.788;9.214;2023-08-24T18:26:28;5.80;;;2.78;;
40815;SDS011;26535;48.788;9.214;2023-08-24T18:28:54;6.30;;;2.85;;
40815;SDS011;26535;48.788;9.214;2023-08-24T18:31:19;7.00;;;2.92;;
40815;SDS011;26535;48.788;9.214;2023-08-24T18:33:49;6.22;;;3.10;;
40815;SDS011;26535;48.788;9.214;2023-08-24T18:36:18;5.93;;;2.72;;
40815;SDS011;26535;48.788;9.214;2023-08-24T18:38:46;6.93;;;3.10;;
40815;SDS011;26535;48.788;9.214;2023-08-24T18:41:12;8.65;;;3.75;;
40815;SDS011;26535;48.788;9.214;2023-08-24T18:43:40;7.28;;;4.07;;
40815;SDS011;26535;48.788;9.214;2023-08-24T18:46:06;6.72;;;4.72;;
40815;SDS011;26535;48.788;9.214;2023-08-24T18:48:32;6.82;;;4.40;;
40815;SDS011;26535;48.788;9.214;2023-08-24T18:50:58;6.78;;;4.95;;
40815;SDS011;26535;48.788;9.214;2023-08-24T18:53:24;10.15;;;5.72;;
40815;SDS011;26535;48.788;9.214;2023-08-24T18:55:59;7.45;;;5.30;;
40815;SDS011;26535;48.788;9.214;2023-08-24T18:58:25;8.93;;;5.55;;
40815;SDS011;26535;48.788;9.214;2023-08-24T19:00:58;9.63;;;5.63;;
40815;SDS011;26535;48.788;9.214;2023-08-24T19:03:26;7.95;;;5.57;;
40815;SDS011;26535;48.788;9.214;2023-08-24T19:05:52;8.07;;;6.00;;
40815;SDS011;26535;48.788;9.214;2023-08-24T19:08:18;7.60;;;5.60;;
40815;SDS011;26535;48.788;9.214;2023-08-24T19:10:44;9.15;;;5.78;;
40815;SDS011;26535;48.788;9.214;2023-08-24T19:13:09;14.40;;;7.55;;
40815;SDS011;26535;48.788;9.214;2023-08-24T19:15:35;14.68;;;8.23;;
40815;SDS011;26535;48.788;9.214;2023-08-24T19:18:01;15.50;;;9.63;;
40815;SDS011;26535;48.788;9.214;2023-08-24T19:20:27;17.00;;;11.43;;
40815;SDS011;26535;48.788;9.214;2023-08-24T19:22:52;17.92;;;12.60;;
40815;SDS011;26535;48.788;9.214;2023-08-24T19:25:18;19.55;;;12.73;;
40815;SDS011;26535;48.788;9.214;2023-08-24T19:27:44;14.82;;;10.45;;
40815;SDS011;26535;48.788;9.214;2023-08-24T19:30:09;15.77;;;11.82;;
40815;SDS011;26535;48.788;9.214;2023-08-24T19:32:35;20.17;;;11.35;;
40815;SDS011;26535;48.788;9.214;2023-08-24T19:35:02;15.75;;;11.68;;
40815;SDS011;26535;48.788;9.214;2023-08-24T19:37:28;19.30;;;13.63;;
40815;SDS011;26535;48.788;9.214;2023-08-24T19:39:54;19.70;;;16.38;;
40815;SDS011;26535;48.788;9.214;2023-08-24T19:42:20;26.05;;;18.02;;
40815;SDS011;26535;48.788;9.214;2023-08-24T19:44:45;22.08;;;18.10;;
40815;SDS011;26535;48.788;9.214;2023-08-24T19:47:11;20.88;;;15.43;;
40815;SDS011;26535;48.788;9.214;2023-08-24T19:49:40;15.60;;;13.32;;
40815;SDS011;26535;48.788;9.214;2023-08-24T19:52:05;12.55;;;10.32;;
40815;SDS011;26535;48.788;9.214;2023-08-24T19:54:31;15.13;;;8.18;;
40815;SDS011;26535;48.788;9.214;2023-08-24T19:56:57;9.52;;;7.65;;
40815;SDS011;26535;48.788;9.214;2023-08-24T19:59:22;7.75;;;5.63;;
40815;SDS011;26535;48.788;9.214;2023-08-24T20:01:48;8.77;;;5.18;;
40815;SDS011;26535;48.788;9.214;2023-08-24T20:04:14;9.43;;;5.63;;
40815;SDS011;26535;48.788;9.214;2023-08-24T20:06:40;7.72;;;5.55;;
40815;SDS011;26535;48.788;9.214;2023-08-24T20:09:05;10.10;;;5.55;;
40815;SDS011;26535;48.788;9.214;2023-08-24T20:11:33;9.35;;;5.95;;
40815;SDS011;26535;48.788;9.214;2023-08-24T20:13:59;11.23;;;6.88;;
40815;SDS011;26535;48.788;9.214;2023-08-24T20:16:25;9.32;;;6.68;;
40815;SDS011;26535;48.788;9.214;2023-08-24T20:18:51;13.68;;;7.90;;
40815;SDS011;26535;48.788;9.214;2023-08-24T20:21:17;12.63;;;7.72;;
40815;SDS011;26535;48.788;9.214;2023-08-24T20:23:42;14.32;;;8.60;;
40815;SDS011;26535;48.788;9.214;2023-08-24T20:26:08;11.98;;;8.40;;
40815;SDS011;26535;48.788;9.214;2023-08-24T20:28:38;12.52;;;7.93;;
40815;SDS011;26535;48.788;9.214;2023-08-24T20:31:08;13.60;;;7.28;;
40815;SDS011;26535;48.788;9.214;2023-08-24T20:33:37;8.93;;;7.30;;
40815;SDS011;26535;48.788;9.214;2023-08-24T20:36:03;11.50;;;8.73;;
40815;SDS011;26535;48.788;9.214;2023-08-24T20:38:29;14.93;;;9.88;;
40815;SDS011;26535;48.788;9.214;2023-08-24T20:40:56;14.40;;;10.30;;
40815;SDS011;26535;48.788;9.214;2023-08-24T20:45:49;15.85;;;10.63;;